Terminal Aerodrome Forecast
Issued by NWS

Home | Current Version | Previous Version | Graphics & Text | Print | Product List | Glossary On
Versions: 1 2 3 4 5 6 7 8 9 10 11 12 13 14 15 16 17 18 19 20 21 22 23 24 25 26 27
000
FTUS43 KLOT 010255 AAA
TAFORD
TAF AMD
KORD 010255Z 0103/0206 05013KT 2SM -DZRA BR OVC005
     FM010600 04011KT 3SM -DZ BR OVC003
     FM011400 04010KT 4SM BR OVC005
     FM011700 03010KT 5SM BR VCSH OVC008
     FM012200 02010G16KT 5SM -SHRA OVC010=

USA.gov is the U.S. government's official web portal to all federal, state and local government web resources and services.